Stryker, OH

4:48 AM EDT on August 31, 2014 (GMT -0400)
Defiance Memorial | Change Station
CLOSE
Current Station
Airport
Location: Defiance,
Elevation: 705 ft
Nearby Weather Stations

Elev 705 ft 41.34 °N, 84.43 °W | Updated 55 minutes ago

Overcast
Overcast
73 °F
Feels Like 73 °F
N
8
Wind Variable Wind from SSW

Today
High -- | Low -- °F
--% Chance of Precip.
Yesterday
High -- | Low -- °F
Precip. -- in
7:02 AM 8:12 PM
Waxing Crescent, 29% visible
Pressure 29.94 in
Visibility 8.0 miles
Clouds Overcast 1900 ft
Dew Point 68 °F
Humidity 84%
Rainfall 0.00 in
Snow Depth Not available.
UV 0 out of 12
Pollen 9.50 out of 12
Air Quality Not available.
Flu Activity Not available.
METAR KDFI 310753Z AUTO 21007KT 8SM OVC019 23/20 A2996 RMK AO2 SLP139 T02280200

More Conditions Fewer Conditions

Pressure 29.94 in
Visibility 8.0 miles
Clouds Overcast 1900 ft
Dew Point 68 °F
Humidity 84%
Rainfall 0.00 in
Snow Depth Not available.
UV 0 out of 12
Pollen 9.50 out of 12
Air Quality Not available.
Flu Activity Not available.
METAR KDFI 310753Z AUTO 21007KT 8SM OVC019 23/20 A2996 RMK AO2 SLP139 T02280200

More Conditions Fewer Conditions

10-Day Weather Forecast

Almanac

Astronomy

Aug. 31, 2014 Rise Set
Actual Time 7:02 AM EDT 8:12 PM EDT
Civil Twilight 6:34 AM EDT 8:40 PM EDT
Nautical Twilight 6:00 AM EDT 9:14 PM EDT
Astronomical Twilight 5:24 AM EDT 9:50 PM EDT
Moon 12:52 PM EDT 11:22 PM EDT
Length of Visible Light 14h 06m
Length of Day
13h 09m
Tomorrow will be 2m 39s shorter.
Waxing Crescent, 29% of the Moon is Illuminated
Today
Waxing Crescent
Sep 2
First Quarter
Sep 8
Full
Sep 15
Last Quarter
Sep 24
New

Today's Extremes

State Highs State Lows

Community

WunderPhotos

Upload Photos

1,748,826 photos uploaded!

Nearby

Snow Depth

Station Depth Elevation
No new snow has been reported.

Earthquake Activity

City Distance Mag. Time & Date
No recent earthquake activity has been reported nearby.
Minimum magnitude displayed is 2.5.

Coastal Water Temperatures

Place Temperature
No Stations Reporting

Nearby Weather Stations